Terminal Aerodrome Forecast
Issued by NWS

Home | Current Version | Previous Version | Text Only | Print | Product List | Glossary On
Versions: 1 2 3 4 5 6 7 8 9 10 11 12 13 14 15
000
FTUS41 KBTV 271735
TAFRUT
TAF
KRUT 271735Z 2718/2818 20008KT P6SM VCSH BKN090
      TEMPO 2718/2722 VRB15G25KT 4SM -SHRA BR BKN050
     FM272200 26004KT P6SM VCSH BKN060
     FM280100 VRB03KT P6SM SCT120
     FM281600 28008KT P6SM SCT070=

USA.gov is the U.S. government's official web portal to all federal, state and local government web resources and services.